Time;durP1;ratioP1;P1;durP2;ratioP2;P2;SDS_P1;SDS_P2;PMS_P1;PMS_P2;Temp;Humidity;BMP_temperature;BMP_pressure;BME280_temperature;BME280_humidity;BME280_pressure;Samples;Min_cycle;Max_cycle;Signal;HPM_P1;HPM_P2
2022/03/29 00:01:55;;;;;;;32.95;21.55;;;;;;;9.14;69.36;99579.19;5011255;28;20038;-65
2022/03/29 00:04:20;;;;;;;54.88;23.23;;;;;;;9.16;69.67;99577.34;5011909;28;20042;-66
2022/03/29 00:06:46;;;;;;;33.67;22.90;;;;;;;9.19;69.24;99571.09;5011009;28;20038;-66
2022/03/29 00:09:11;;;;;;;38.13;23.23;;;;;;;9.13;69.91;99569.59;5012006;28;20113;-66
2022/03/29 00:11:37;;;;;;;40.40;26.02;;;;;;;9.12;69.98;99562.63;5011840;28;20045;-65
2022/03/29 00:14:02;;;;;;;42.05;23.63;;;;;;;9.14;69.53;99563.41;5012109;28;20099;-67
2022/03/29 00:16:28;;;;;;;40.72;24.85;;;;;;;9.17;69.44;99562.41;5011488;28;20133;-66
2022/03/29 00:18:54;;;;;;;38.78;23.70;;;;;;;9.20;69.67;99547.31;5011903;28;20040;-66
2022/03/29 00:21:19;;;;;;;36.35;24.85;;;;;;;9.19;69.80;99548.25;5011285;28;20038;-66
2022/03/29 00:23:45;;;;;;;39.35;23.90;;;;;;;9.13;69.93;99545.94;5012280;28;20038;-66
2022/03/29 00:26:14;;;;;;;42.63;23.83;;;;;;;9.08;70.37;99540.03;5011669;28;20053;-66
2022/03/29 00:28:40;;;;;;;39.63;24.02;;;;;;;9.10;70.13;99539.94;5011431;28;20170;-66
2022/03/29 00:31:05;;;;;;;40.60;24.30;;;;;;;9.13;70.62;99539.78;5002785;28;20622;-66
2022/03/29 00:33:30;;;;;;;42.63;23.50;;;;;;;9.16;70.65;99531.78;5007759;28;20053;-66
2022/03/29 00:35:56;;;;;;;40.72;28.15;;;;;;;9.16;70.65;99537.03;5011236;28;20032;-66
2022/03/29 00:38:21;;;;;;;43.25;24.95;;;;;;;9.19;70.31;99531.63;5011343;28;20391;-66
2022/03/29 00:40:47;;;;;;;46.35;27.40;;;;;;;9.22;69.76;99524.44;5002305;28;20104;-66
2022/03/29 00:43:13;;;;;;;44.72;25.75;;;;;;;9.30;70.52;99529.31;5011589;28;20040;-66
2022/03/29 00:45:38;;;;;;;43.30;27.35;;;;;;;9.32;69.87;99524.84;5010442;28;20029;-66
2022/03/29 00:48:06;;;;;;;52.15;27.40;;;;;;;9.31;70.32;99528.41;5011045;28;20044;-65
2022/03/29 00:50:31;;;;;;;47.72;28.27;;;;;;;9.30;69.99;99515.31;5011049;28;20121;-66
2022/03/29 00:52:56;;;;;;;36.65;25.73;;;;;;;9.36;70.05;99518.53;5011393;28;20493;-67
2022/03/29 00:55:22;;;;;;;42.90;26.83;;;;;;;9.43;69.37;99519.94;5011212;28;20034;-65
2022/03/29 00:57:49;;;;;;;45.95;28.17;;;;;;;9.43;69.35;99513.81;5010767;28;20069;-65
2022/03/29 01:00:16;;;;;;;40.88;24.23;;;;;;;9.44;69.26;99518.16;4995945;28;20030;-65
2022/03/29 01:02:43;;;;;;;41.45;25.92;;;;;;;9.48;69.22;99518.88;5011923;28;20033;-64
2022/03/29 01:05:09;;;;;;;39.35;25.42;;;;;;;9.48;69.29;99517.06;5013199;28;20038;-65
2022/03/29 01:07:35;;;;;;;40.72;25.27;;;;;;;9.46;69.92;99508.41;5012249;28;20363;-66
2022/03/29 01:10:01;;;;;;;44.60;27.33;;;;;;;9.42;69.70;99512.94;4994122;28;20133;-65
2022/03/29 01:12:29;;;;;;;41.15;24.42;;;;;;;9.48;70.08;99506.56;5010939;28;20501;-66
2022/03/29 01:14:56;;;;;;;46.00;27.80;;;;;;;9.51;70.07;99503.75;5011071;28;20034;-64
2022/03/29 01:17:40;;;;;;;46.55;26.00;;;;;;;9.53;69.18;99493.16;5013171;28;20034;-64
2022/03/29 01:20:08;;;;;;;42.60;24.50;;;;;;;9.54;70.14;99490.44;5012358;28;20609;-65
2022/03/29 01:22:38;;;;;;;41.80;29.15;;;;;;;9.53;69.47;99486.13;5013990;28;20030;-66
2022/03/29 01:25:05;;;;;;;54.30;29.38;;;;;;;9.52;69.45;99481.78;5014047;28;20100;-65
2022/03/29 01:27:32;;;;;;;50.20;24.70;;;;;;;9.45;69.83;99475.97;5017371;28;20044;-67
2022/03/29 01:29:59;;;;;;;44.28;27.10;;;;;;;9.45;70.24;99483.88;5026329;28;20041;-65
2022/03/29 01:32:28;;;;;;;39.42;24.98;;;;;;;9.47;69.81;99473.25;5018893;28;20034;-66
2022/03/29 01:34:54;;;;;;;49.15;28.75;;;;;;;9.47;70.34;99478.50;5012613;28;20091;-65
2022/03/29 01:37:20;;;;;;;48.13;28.20;;;;;;;9.44;70.23;99476.03;5012172;28;20030;-66
2022/03/29 01:39:45;;;;;;;44.58;27.88;;;;;;;9.38;70.81;99473.72;5012181;28;20030;-66
2022/03/29 01:42:10;;;;;;;46.30;27.75;;;;;;;9.32;70.66;99466.13;5011248;28;20042;-66
2022/03/29 01:44:36;;;;;;;49.20;27.58;;;;;;;9.28;70.91;99468.06;5012048;28;20055;-66
2022/03/29 01:47:01;;;;;;;34.95;25.00;;;;;;;9.26;70.75;99461.19;5012066;28;20044;-67
2022/03/29 01:49:27;;;;;;;45.92;27.92;;;;;;;9.23;71.48;99459.56;5011641;28;20501;-66
2022/03/29 01:51:53;;;;;;;46.80;28.42;;;;;;;9.18;71.13;99457.16;5010956;28;20053;-65
2022/03/29 01:54:18;;;;;;;41.15;28.38;;;;;;;9.15;71.31;99459.06;5011689;28;20803;-66
2022/03/29 01:56:44;;;;;;;47.10;27.65;;;;;;;9.07;71.64;99450.69;5010733;28;20040;-65
2022/03/29 01:59:13;;;;;;;33.10;22.77;;;;;;;8.98;72.20;99444.09;5010942;28;20087;-66
2022/03/29 02:01:56;;;;;;;39.33;20.92;;;;;;;9.08;71.75;99444.50;5010575;28;20041;-66
2022/03/29 02:04:21;;;;;;;34.58;23.88;;;;;;;9.14;71.05;99445.06;5008788;28;20038;-66
2022/03/29 02:06:47;;;;;;;44.90;26.83;;;;;;;9.18;70.82;99436.09;5010316;28;20034;-66
2022/03/29 02:09:12;;;;;;;44.10;25.52;;;;;;;9.16;71.54;99429.22;5010246;28;20201;-66
2022/03/29 02:11:41;;;;;;;37.15;25.08;;;;;;;9.17;70.96;99423.03;5008993;28;20059;-66
2022/03/29 02:14:08;;;;;;;44.30;25.58;;;;;;;9.14;71.56;99424.03;5010110;28;20037;-66
2022/03/29 02:16:33;;;;;;;46.30;26.15;;;;;;;9.13;71.57;99432.84;5008859;28;20109;-67
2022/03/29 02:18:59;;;;;;;47.33;27.50;;;;;;;9.10;71.76;99432.97;5008697;28;20116;-66
2022/03/29 02:21:24;;;;;;;43.22;25.52;;;;;;;9.08;71.90;99433.97;5009681;28;20034;-66
2022/03/29 02:23:49;;;;;;;43.85;27.52;;;;;;;9.10;72.07;99434.75;4993147;28;20498;-65
2022/03/29 02:26:15;;;;;;;45.13;29.05;;;;;;;9.09;71.81;99436.53;4990275;28;20487;-66
2022/03/29 02:28:40;;;;;;;53.63;29.33;;;;;;;9.05;71.73;99429.72;4990539;28;20027;-66
2022/03/29 02:31:06;;;;;;;41.88;28.55;;;;;;;9.06;71.87;99422.69;4989803;28;20526;-66
2022/03/29 02:33:31;;;;;;;45.80;27.95;;;;;;;8.99;71.97;99419.53;5006060;28;20042;-66
2022/03/29 02:35:56;;;;;;;45.22;27.38;;;;;;;8.92;72.28;99418.97;5009675;28;20025;-68
2022/03/29 02:38:22;;;;;;;43.95;28.42;;;;;;;8.90;72.59;99417.31;5009976;28;20406;-66
2022/03/29 02:40:48;;;;;;;39.83;26.10;;;;;;;8.91;72.64;99406.75;5009392;28;20041;-66
2022/03/29 02:43:13;;;;;;;42.00;27.65;;;;;;;8.90;72.68;99404.19;5009455;28;20038;-66
2022/03/29 02:45:39;;;;;;;47.60;27.05;;;;;;;8.87;72.96;99397.31;5010201;28;20092;-65
2022/03/29 02:48:05;;;;;;;40.08;26.92;;;;;;;8.88;72.50;99395.50;5009542;28;20112;-66
2022/03/29 02:50:30;;;;;;;39.72;26.15;;;;;;;8.86;72.59;99392.09;5009502;28;20494;-66
2022/03/29 02:52:59;;;;;;;43.30;27.50;;;;;;;8.82;72.94;99388.78;5009642;28;20041;-66
2022/03/29 02:55:30;;;;;;;39.85;26.98;;;;;;;8.81;73.39;99384.44;5009751;28;20034;-66
2022/03/29 02:57:56;;;;;;;44.28;27.70;;;;;;;8.78;72.84;99380.19;5009933;28;20429;-67
2022/03/29 03:00:22;;;;;;;47.47;27.38;;;;;;;8.74;73.07;99383.91;5008306;28;20034;-65
2022/03/29 03:02:49;;;;;;;43.35;26.95;;;;;;;8.72;72.91;99375.25;5008984;28;20375;-65
2022/03/29 03:05:15;;;;;;;43.45;28.00;;;;;;;8.75;72.67;99384.75;5009583;28;20029;-65
2022/03/29 03:07:42;;;;;;;45.90;26.52;;;;;;;8.77;73.01;99383.75;5010116;28;20030;-66
2022/03/29 03:10:09;;;;;;;45.30;24.98;;;;;;;8.77;73.52;99372.41;5009674;28;20038;-66
2022/03/29 03:12:36;;;;;;;38.35;23.92;;;;;;;8.84;72.57;99359.81;5009302;28;20037;-65
2022/03/29 03:15:02;;;;;;;35.85;23.73;;;;;;;8.89;72.44;99374.44;5008837;28;20030;-65
2022/03/29 03:17:27;;;;;;;48.72;27.05;;;;;;;8.92;72.64;99376.91;5008631;28;20128;-66
2022/03/29 03:19:52;;;;;;;44.03;25.52;;;;;;;8.97;71.89;99374.03;5009501;28;20037;-66
2022/03/29 03:22:18;;;;;;;40.55;24.42;;;;;;;8.98;72.27;99370.47;5008288;28;20037;-65
2022/03/29 03:24:43;;;;;;;50.90;30.50;;;;;;;8.96;71.89;99372.34;5008618;28;20485;-66
2022/03/29 03:27:08;;;;;;;42.60;25.60;;;;;;;8.94;72.03;99372.41;5009487;28;20113;-66
2022/03/29 03:29:34;;;;;;;39.00;25.60;;;;;;;8.95;72.52;99365.38;5008862;28;20481;-67
2022/03/29 03:32:00;;;;;;;37.42;26.65;;;;;;;8.92;72.20;99362.91;5008677;28;20053;-66
2022/03/29 03:34:25;;;;;;;44.38;23.98;;;;;;;8.84;72.73;99358.03;5009442;28;20044;-67
2022/03/29 03:36:51;;;;;;;50.53;28.63;;;;;;;8.88;72.62;99356.94;5012413;28;20042;-66
2022/03/29 03:39:17;;;;;;;38.03;25.58;;;;;;;8.87;72.30;99347.34;5012660;28;20030;-65
2022/03/29 03:41:43;;;;;;;36.05;23.13;;;;;;;8.89;72.98;99345.50;5012157;28;20037;-66
2022/03/29 03:44:11;;;;;;;44.97;26.35;;;;;;;8.87;72.54;99343.88;5012800;28;20176;-65
2022/03/29 03:46:37;;;;;;;41.15;26.17;;;;;;;8.84;72.56;99344.88;5011943;28;20509;-66
2022/03/29 03:49:02;;;;;;;46.03;26.33;;;;;;;8.83;72.99;99345.78;5012254;28;20049;-66
2022/03/29 03:51:28;;;;;;;40.53;24.55;;;;;;;8.82;73.44;99339.69;5012101;28;20516;-66
2022/03/29 03:53:53;;;;;;;49.75;28.80;;;;;;;8.81;73.36;99337.13;5012315;28;20482;-66
2022/03/29 03:56:18;;;;;;;33.30;20.65;;;;;;;8.83;72.80;99332.66;5010847;28;20451;-67
2022/03/29 03:58:44;;;;;;;48.65;28.17;;;;;;;8.73;73.11;99326.16;5012325;28;20541;-67
2022/03/29 04:01:11;;;;;;;37.67;25.08;;;;;;;8.62;73.49;99329.31;5012324;28;20040;-66
2022/03/29 04:03:37;;;;;;;42.50;24.00;;;;;;;8.64;73.50;99332.72;5012441;28;20046;-67
2022/03/29 04:06:03;;;;;;;46.22;26.10;;;;;;;8.59;73.48;99324.22;5011829;28;20451;-67
2022/03/29 04:08:28;;;;;;;48.03;27.60;;;;;;;8.55;74.14;99322.66;5012182;28;20113;-66
2022/03/29 04:10:53;;;;;;;48.33;26.63;;;;;;;8.55;73.58;99323.50;5010837;28;20045;-66
2022/03/29 04:13:19;;;;;;;43.00;25.65;;;;;;;8.53;74.06;99309.56;5012189;28;20471;-67
2022/03/29 04:15:45;;;;;;;51.65;28.40;;;;;;;8.52;73.96;99320.19;5011900;28;20109;-66
2022/03/29 04:18:10;;;;;;;43.03;26.35;;;;;;;8.50;74.04;99322.03;5012580;28;20164;-67
2022/03/29 04:20:36;;;;;;;45.05;26.15;;;;;;;8.51;73.92;99324.56;5013225;28;20038;-65
2022/03/29 04:23:01;;;;;;;47.53;27.90;;;;;;;8.51;73.81;99311.41;5024903;28;20041;-65
2022/03/29 04:25:26;;;;;;;40.63;24.40;;;;;;;8.49;73.67;99309.78;5024728;28;20041;-65
2022/03/29 04:27:52;;;;;;;45.05;27.70;;;;;;;8.49;73.75;99307.16;5019234;28;20561;-67
2022/03/29 04:30:17;;;;;;;42.88;26.35;;;;;;;8.43;74.08;99302.22;5013586;28;20485;-65
2022/03/29 04:32:42;;;;;;;40.65;26.83;;;;;;;8.33;74.91;99305.25;5010040;28;20124;-66
2022/03/29 04:35:08;;;;;;;39.30;25.05;;;;;;;8.27;74.97;99288.94;5013033;28;20115;-66
2022/03/29 04:37:33;;;;;;;38.50;22.85;;;;;;;8.33;75.02;99288.66;5012967;28;20409;-66
2022/03/29 04:39:59;;;;;;;38.15;21.13;;;;;;;8.41;74.31;99296.19;5012468;28;20092;-67
2022/03/29 04:42:24;;;;;;;34.28;21.40;;;;;;;8.43;74.55;99299.59;5012026;28;20033;-66
2022/03/29 04:44:49;;;;;;;45.83;25.45;;;;;;;8.45;74.23;99303.00;5011439;28;20500;-67
2022/03/29 04:47:15;;;;;;;41.95;24.90;;;;;;;8.36;74.34;99293.75;5011865;28;20427;-66
2022/03/29 04:49:40;;;;;;;39.63;22.98;;;;;;;8.37;74.55;99293.69;5012119;28;20046;-65
2022/03/29 04:52:06;;;;;;;42.20;26.85;;;;;;;8.36;74.41;99291.13;5011370;28;20035;-66
2022/03/29 04:54:31;;;;;;;48.58;28.67;;;;;;;8.35;74.82;99292.91;5011742;28;20042;-66
2022/03/29 04:56:57;;;;;;;49.58;27.83;;;;;;;8.31;74.81;99290.50;5011118;28;20034;-67
2022/03/29 04:59:22;;;;;;;44.67;28.30;;;;;;;8.25;75.51;99285.56;5007290;28;20449;-67
2022/03/29 05:01:47;;;;;;;60.83;29.90;;;;;;;8.17;75.29;99276.25;5022478;28;20064;-65
2022/03/29 05:04:13;;;;;;;54.85;27.08;;;;;;;8.13;75.15;99276.47;5031120;28;20062;-66
2022/03/29 05:06:38;;;;;;;44.92;26.05;;;;;;;8.08;75.13;99276.69;5031365;28;20040;-65
2022/03/29 05:09:04;;;;;;;42.08;26.52;;;;;;;8.08;75.77;99268.81;5030994;28;20445;-66
2022/03/29 05:11:29;;;;;;;43.55;25.95;;;;;;;8.05;75.72;99268.09;5030619;28;20087;-66
2022/03/29 05:13:55;;;;;;;50.33;28.77;;;;;;;8.02;75.68;99266.47;5030321;28;20034;-66
2022/03/29 05:16:20;;;;;;;46.35;25.38;;;;;;;8.01;76.00;99271.81;5030581;28;20116;-66
2022/03/29 05:18:46;;;;;;;48.78;26.77;;;;;;;7.99;76.18;99268.41;5030537;28;20040;-65
2022/03/29 05:21:12;;;;;;;48.28;29.60;;;;;;;8.00;75.41;99264.84;5030622;28;20036;-67
2022/03/29 05:23:37;;;;;;;50.25;29.58;;;;;;;7.99;75.94;99273.66;5030423;28;20561;-67
2022/03/29 05:26:02;;;;;;;54.47;29.02;;;;;;;7.99;75.48;99278.91;5030365;28;20124;-67
2022/03/29 05:28:28;;;;;;;53.08;28.63;;;;;;;8.01;75.99;99279.69;5030486;28;20492;-67
2022/03/29 05:30:53;;;;;;;35.03;25.08;;;;;;;8.07;75.99;99279.38;5029636;28;20033;-67
2022/03/29 05:33:19;;;;;;;48.63;26.85;;;;;;;8.12;75.89;99269.50;5014319;28;20030;-65
2022/03/29 05:35:45;;;;;;;44.38;26.08;;;;;;;8.12;75.93;99274.75;5010635;28;20489;-66
2022/03/29 05:38:11;;;;;;;47.33;27.20;;;;;;;8.07;75.97;99271.50;5011074;28;20036;-66
2022/03/29 05:40:37;;;;;;;56.25;30.02;;;;;;;8.02;75.68;99271.72;5010516;28;20105;-66
2022/03/29 05:43:02;;;;;;;51.78;27.33;;;;;;;7.94;76.07;99269.44;5010976;28;20555;-67
2022/03/29 05:45:29;;;;;;;50.30;28.45;;;;;;;7.93;76.22;99261.66;5011127;28;20046;-66
2022/03/29 05:50:39;;;;;;;55.63;30.42;;;;;;;7.92;76.56;99258.16;5010387;28;20049;-66
2022/03/29 05:53:04;;;;;;;50.83;30.73;;;;;;;7.89;76.22;99258.31;5010715;28;20478;-65
2022/03/29 05:55:30;;;;;;;56.63;31.70;;;;;;;7.89;76.80;99247.81;5010484;28;20033;-65
2022/03/29 05:57:56;;;;;;;54.83;27.02;;;;;;;7.89;76.56;99241.72;5009108;28;20048;-65
2022/03/29 06:00:23;;;;;;;63.40;33.67;;;;;;;7.91;75.90;99239.88;5010050;28;20113;-65
2022/03/29 06:02:49;;;;;;;44.22;27.20;;;;;;;7.94;76.10;99240.56;5009901;28;20036;-66
2022/03/29 06:05:14;;;;;;;41.17;25.98;;;;;;;7.99;76.38;99243.00;5009063;28;20117;-66
2022/03/29 06:07:39;;;;;;;36.40;23.55;;;;;;;8.09;76.07;99243.41;5010458;28;20041;-65
2022/03/29 06:10:06;;;;;;;39.55;24.38;;;;;;;8.20;75.25;99245.53;5010013;28;20038;-66
2022/03/29 06:12:33;;;;;;;50.38;25.48;;;;;;;8.29;75.25;99250.31;5008627;28;20125;-66
2022/03/29 06:15:02;;;;;;;45.30;27.10;;;;;;;8.32;74.69;99248.41;5009966;28;20038;-66
2022/03/29 06:17:28;;;;;;;45.47;27.73;;;;;;;8.36;74.78;99249.94;5010270;28;20577;-67
2022/03/29 06:19:54;;;;;;;48.13;32.28;;;;;;;8.39;74.78;99243.69;5010144;28;20122;-66
2022/03/29 06:22:20;;;;;;;51.17;27.38;;;;;;;8.42;74.48;99254.09;5010022;28;20030;-66
2022/03/29 06:24:46;;;;;;;51.63;29.58;;;;;;;8.44;74.49;99240.88;5010684;28;20634;-67
2022/03/29 06:27:11;;;;;;;58.65;29.70;;;;;;;8.44;74.23;99238.25;4997005;28;20458;-65
2022/03/29 06:29:36;;;;;;;37.40;24.98;;;;;;;8.50;74.54;99248.47;4993178;28;20046;-65
2022/03/29 06:32:03;;;;;;;54.90;30.77;;;;;;;8.63;73.77;99243.44;4992531;28;20053;-66
2022/03/29 06:34:29;;;;;;;40.95;25.73;;;;;;;8.67;73.87;99245.00;4991749;28;20376;-67
2022/03/29 06:36:55;;;;;;;45.30;28.02;;;;;;;8.74;73.06;99247.25;4991774;28;20037;-66
2022/03/29 06:39:20;;;;;;;44.63;27.88;;;;;;;8.80;72.92;99241.66;4991224;28;20030;-68
2022/03/29 06:41:46;;;;;;;42.05;26.88;;;;;;;8.87;73.46;99241.38;4990344;28;20061;-67
2022/03/29 06:44:13;;;;;;;43.65;26.77;;;;;;;8.88;73.23;99237.81;4990723;28;20477;-66
2022/03/29 06:46:39;;;;;;;45.92;27.45;;;;;;;8.95;73.27;99252.34;4990142;28;20102;-66
2022/03/29 06:49:06;;;;;;;49.85;28.10;;;;;;;8.99;72.40;99251.25;4990213;28;20113;-66
2022/03/29 06:51:35;;;;;;;69.82;34.08;;;;;;;9.05;72.48;99245.66;4989837;28;20030;-68
2022/03/29 06:54:01;;;;;;;46.80;29.90;;;;;;;9.12;72.58;99239.16;4989876;28;20046;-65
2022/03/29 06:56:28;;;;;;;44.10;29.65;;;;;;;9.18;71.97;99251.13;4989833;28;20494;-66
2022/03/29 06:58:53;;;;;;;48.17;26.75;;;;;;;9.23;71.55;99239.47;4990309;28;20039;-65
2022/03/29 07:01:19;;;;;;;56.30;30.05;;;;;;;9.34;71.80;99238.88;4990050;28;20056;-67
2022/03/29 07:03:44;;;;;;;50.35;29.52;;;;;;;9.38;71.28;99237.81;4990433;28;20041;-65
2022/03/29 07:06:09;;;;;;;52.15;30.52;;;;;;;9.42;71.35;99238.47;4990885;28;20398;-65
2022/03/29 07:08:35;;;;;;;52.08;30.25;;;;;;;9.50;70.78;99235.44;4991943;28;20438;-66
2022/03/29 07:11:16;;;;;;;56.10;31.55;;;;;;;9.55;71.22;99243.94;4995962;28;20399;-65
2022/03/29 07:13:42;;;;;;;58.00;30.08;;;;;;;9.62;70.53;99243.53;4994640;28;20442;-65
2022/03/29 07:16:09;;;;;;;39.67;25.73;;;;;;;9.80;70.42;99248.75;4993981;28;20174;-66
2022/03/29 07:18:35;;;;;;;70.05;26.73;;;;;;;9.99;69.79;99249.44;4996072;28;20046;-66
2022/03/29 07:21:00;;;;;;;52.40;30.25;;;;;;;10.08;68.71;99253.31;4998488;28;20034;-65
2022/03/29 07:23:27;;;;;;;45.33;26.80;;;;;;;10.21;68.66;99242.94;4999742;28;20042;-64
2022/03/29 07:25:52;;;;;;;44.97;27.33;;;;;;;10.36;67.83;99239.50;4997550;28;20085;-66
2022/03/29 07:28:18;;;;;;;39.40;27.50;;;;;;;10.45;67.94;99238.94;5007609;28;20034;-65
2022/03/29 07:30:44;;;;;;;55.13;30.52;;;;;;;10.47;67.94;99242.34;5014122;28;20153;-65
2022/03/29 07:33:11;;;;;;;49.50;29.60;;;;;;;10.51;67.76;99237.75;5013899;28;20113;-66
2022/03/29 07:35:36;;;;;;;45.13;27.63;;;;;;;10.61;67.66;99238.91;5013486;28;20038;-65
2022/03/29 07:38:04;;;;;;;42.30;24.08;;;;;;;10.71;67.16;99245.34;5012289;28;20026;-66
2022/03/29 07:40:30;;;;;;;53.45;29.60;;;;;;;10.83;66.09;99235.88;5012829;28;20050;-65
2022/03/29 07:42:56;;;;;;;52.70;29.27;;;;;;;10.90;65.55;99234.56;5014021;28;20080;-66
2022/03/29 07:45:22;;;;;;;55.50;30.92;;;;;;;11.01;64.92;99238.34;5013778;28;20452;-65
2022/03/29 07:47:56;;;;;;;49.30;29.33;;;;;;;11.05;64.60;99237.22;5013059;28;20037;-66
2022/03/29 07:50:26;;;;;;;55.72;29.50;;;;;;;11.17;64.32;99237.34;5012839;28;20453;-65
2022/03/29 07:52:52;;;;;;;47.58;29.17;;;;;;;11.25;63.59;99236.88;5012676;28;20412;-66
2022/03/29 07:55:18;;;;;;;46.65;27.90;;;;;;;11.36;63.29;99236.22;5012376;28;20129;-66
2022/03/29 07:57:44;;;;;;;46.55;26.30;;;;;;;11.34;63.18;99235.44;5013090;28;20045;-66
2022/03/29 08:02:56;;;;;;;58.78;31.35;;;;;;;11.43;63.19;99232.25;5011647;28;20056;-67
2022/03/29 08:05:22;;;;;;;52.92;30.13;;;;;;;11.58;62.58;99239.22;5012463;28;20041;-64
2022/03/29 08:07:48;;;;;;;45.55;29.35;;;;;;;11.71;62.37;99227.88;5011954;28;20030;-65
2022/03/29 08:10:14;;;;;;;73.57;37.33;;;;;;;11.69;62.02;99228.00;5012693;28;20098;-66
2022/03/29 08:12:40;;;;;;;60.03;31.77;;;;;;;11.71;62.07;99227.88;5011960;28;20044;-66
2022/03/29 08:15:07;;;;;;;64.57;34.30;;;;;;;11.79;61.94;99221.19;5012080;28;20038;-65
2022/03/29 08:17:33;;;;;;;51.25;32.03;;;;;;;11.87;61.47;99218.09;5008811;28;20549;-67
2022/03/29 08:19:59;;;;;;;47.25;28.63;;;;;;;12.13;61.41;99218.19;5011223;28;20045;-66
2022/03/29 08:22:24;;;;;;;60.13;32.92;;;;;;;12.18;60.33;99216.97;5012010;28;20437;-65
2022/03/29 08:24:50;;;;;;;52.88;31.27;;;;;;;12.29;59.95;99212.78;5011150;28;20046;-64
2022/03/29 08:27:15;;;;;;;56.78;33.40;;;;;;;12.57;59.68;99212.63;5010391;28;20117;-67
2022/03/29 08:29:41;;;;;;;49.83;30.70;;;;;;;12.75;59.15;99210.56;5012938;28;20121;-66
2022/03/29 08:32:07;;;;;;;46.03;27.50;;;;;;;13.00;58.28;99208.91;5012296;28;20036;-65
2022/03/29 08:34:33;;;;;;;41.08;27.05;;;;;;;13.21;57.53;99206.56;5013255;28;20084;-67
2022/03/29 08:36:58;;;;;;;45.90;27.77;;;;;;;13.49;56.77;99205.53;5012384;28;20486;-68
2022/03/29 08:39:23;;;;;;;46.75;31.02;;;;;;;13.74;55.10;99201.97;5013920;28;20042;-67
2022/03/29 08:42:23;;;;;;;48.35;28.38;;;;;;;14.03;54.11;99204.31;5014161;28;20061;-69
2022/03/29 08:44:49;;;;;;;51.03;29.35;;;;;;;14.21;53.49;99191.53;5011748;28;20048;-68
2022/03/29 08:47:15;;;;;;;51.97;29.20;;;;;;;14.36;53.16;99183.28;5012729;28;20030;-66
2022/03/29 08:49:42;;;;;;;48.40;30.40;;;;;;;14.60;52.73;99183.28;5012695;28;20096;-66
2022/03/29 08:52:08;;;;;;;50.17;25.58;;;;;;;14.90;51.88;99184.56;5011629;28;20117;-64
2022/03/29 08:54:34;;;;;;;42.90;27.38;;;;;;;15.19;50.89;99184.97;5011418;28;20065;-66
2022/03/29 08:57:00;;;;;;;49.35;28.67;;;;;;;15.29;50.43;99179.78;5011627;28;20119;-66
2022/03/29 08:59:27;;;;;;;59.42;28.85;;;;;;;15.18;49.96;99175.28;5011674;28;20088;-67
2022/03/29 09:01:53;;;;;;;43.92;25.50;;;;;;;15.07;49.98;99172.63;5010884;28;20030;-65
2022/03/29 09:04:23;;;;;;;43.88;26.17;;;;;;;14.97;49.90;99172.50;5011518;28;20045;-65
2022/03/29 09:06:54;;;;;;;48.25;26.73;;;;;;;15.10;49.46;99167.09;5009750;28;20449;-66
2022/03/29 09:09:27;;;;;;;40.58;26.88;;;;;;;14.93;49.94;99173.69;5008892;28;20066;-65
2022/03/29 09:11:55;;;;;;;47.47;27.83;;;;;;;14.76;49.97;99159.06;5010514;28;20092;-65
2022/03/29 09:14:25;;;;;;;35.50;22.83;;;;;;;14.72;50.70;99168.25;5002970;28;20088;-65
2022/03/29 09:16:51;;;;;;;48.30;24.90;;;;;;;15.19;49.53;99158.41;5011342;28;20091;-66
2022/03/29 09:19:25;;;;;;;37.85;23.33;;;;;;;15.79;48.03;99155.47;5010663;28;20029;-66
2022/03/29 09:21:54;;;;;;;37.83;22.80;;;;;;;16.26;47.12;99159.56;5010433;28;20029;-67
2022/03/29 09:24:20;;;;;;;39.17;25.33;;;;;;;16.67;45.66;99168.56;5010419;28;20034;-67
2022/03/29 09:26:49;;;;;;;36.30;25.00;;;;;;;16.91;44.90;99164.84;5010951;28;20058;-67
2022/03/29 09:29:22;;;;;;;39.83;24.73;;;;;;;17.22;44.33;99152.34;5017956;28;20041;-68
2022/03/29 09:32:06;;;;;;;40.35;23.13;;;;;;;17.33;44.07;99159.44;5030044;28;20366;-66
2022/03/29 09:34:31;;;;;;;35.25;24.65;;;;;;;17.10;45.08;99154.25;5030008;28;20057;-66
2022/03/29 09:36:57;;;;;;;38.75;23.75;;;;;;;17.50;43.65;99152.59;5029098;28;20061;-67
2022/03/29 09:39:31;;;;;;;45.13;25.98;;;;;;;17.69;42.71;99150.00;5030675;28;20036;-67
2022/03/29 09:42:01;;;;;;;40.22;25.92;;;;;;;17.76;42.65;99156.47;5030218;28;20126;-67
2022/03/29 09:44:43;;;;;;;43.33;26.02;;;;;;;17.73;42.36;99143.41;5030227;28;20052;-67
2022/03/29 09:47:11;;;;;;;35.80;24.13;;;;;;;17.47;42.55;99144.88;5013628;28;20042;-66
2022/03/29 09:49:49;;;;;;;34.65;24.05;;;;;;;17.66;42.64;99133.44;5009797;28;20494;-67
2022/03/29 09:52:18;;;;;;;37.35;22.40;;;;;;;18.01;42.27;99128.47;5010004;28;20061;-66
2022/03/29 09:55:13;;;;;;;38.25;26.50;;;;;;;17.90;41.59;99130.44;5010658;28;20033;-66
2022/03/29 09:57:41;;;;;;;35.97;21.57;;;;;;;18.34;41.05;99122.88;5010236;28;20570;-67
2022/03/29 10:00:27;;;;;;;31.40;23.48;;;;;;;18.63;40.25;99129.03;5010256;28;20460;-67
2022/03/29 10:02:54;;;;;;;32.63;22.10;;;;;;;18.66;40.18;99123.38;5009827;28;20125;-67
2022/03/29 10:05:19;;;;;;;40.30;25.10;;;;;;;18.65;40.44;99118.19;5010117;28;20029;-66
2022/03/29 10:10:48;;;;;;;43.22;27.48;;;;;;;18.99;39.59;99107.88;5009462;28;20057;-66
2022/03/29 10:13:15;;;;;;;44.15;27.55;;;;;;;18.95;39.65;99109.16;5007711;28;20034;-67
2022/03/29 10:15:41;;;;;;;33.38;22.55;;;;;;;19.08;39.07;99108.84;5009889;28;20178;-66
2022/03/29 10:18:07;;;;;;;36.65;24.73;;;;;;;18.64;40.58;99103.16;5009881;28;20122;-66
2022/03/29 10:20:34;;;;;;;50.47;26.75;;;;;;;18.54;40.96;99102.34;5009770;28;20056;-66
2022/03/29 10:23:00;;;;;;;38.63;26.83;;;;;;;18.09;41.58;99085.13;5009905;28;20037;-66
2022/03/29 10:25:26;;;;;;;46.80;25.13;;;;;;;18.36;41.36;99087.06;5010200;28;20121;-66
2022/03/29 10:27:53;;;;;;;35.17;23.38;;;;;;;18.51;40.59;99083.91;5010145;28;20041;-66
2022/03/29 10:30:39;;;;;;;44.88;27.10;;;;;;;18.68;40.49;99075.19;5009730;28;20510;-66
2022/03/29 10:33:25;;;;;;;38.13;24.23;;;;;;;18.96;38.97;99081.44;5009625;28;20466;-66
2022/03/29 10:36:15;;;;;;;38.30;22.90;;;;;;;19.18;38.64;99074.06;5005053;28;20044;-67
2022/03/29 10:38:47;;;;;;;37.92;21.50;;;;;;;19.18;38.34;99074.06;5006562;28;20030;-67
2022/03/29 10:41:31;;;;;;;30.92;21.45;;;;;;;19.23;37.96;99067.28;5009627;28;20393;-67
2022/03/29 10:44:05;;;;;;;32.58;19.67;;;;;;;19.43;37.83;99068.00;5009531;28;20057;-65
2022/03/29 10:46:52;;;;;;;36.25;22.38;;;;;;;19.14;37.98;99068.16;5013767;28;20037;-66
2022/03/29 10:49:32;;;;;;;30.42;21.65;;;;;;;18.77;38.92;99057.47;5013453;28;20449;-65
2022/03/29 10:52:20;;;;;;;33.53;22.67;;;;;;;18.60;38.99;99049.19;5013525;28;20034;-65
2022/03/29 10:54:46;;;;;;;39.72;23.15;;;;;;;18.57;39.15;99046.00;5013952;28;20045;-65
2022/03/29 10:57:28;;;;;;;36.28;23.25;;;;;;;18.17;39.95;99047.88;5014111;28;20044;-65
2022/03/29 11:00:17;;;;;;;38.22;24.63;;;;;;;18.16;40.22;99048.03;5015068;28;20061;-65
2022/03/29 11:03:10;;;;;;;42.85;23.33;;;;;;;17.91;40.42;99036.94;5022463;28;20076;-65
2022/03/29 11:06:07;;;;;;;36.17;20.42;;;;;;;17.73;40.72;99036.78;5021869;28;20045;-66
2022/03/29 11:08:34;;;;;;;37.53;21.85;;;;;;;17.71;40.81;99030.75;5026503;28;20093;-67
2022/03/29 11:11:00;;;;;;;34.65;21.10;;;;;;;17.83;40.85;99030.66;5025746;28;20065;-67
2022/03/29 11:13:37;;;;;;;34.35;23.98;;;;;;;17.62;41.08;99034.22;5022182;28;20041;-66
2022/03/29 11:16:30;;;;;;;35.92;22.05;;;;;;;17.57;41.19;99021.34;5020056;28;20033;-66
2022/03/29 11:18:58;;;;;;;36.25;19.83;;;;;;;17.62;41.14;99026.22;5025608;28;20038;-67
2022/03/29 11:21:30;;;;;;;29.98;19.80;;;;;;;17.62;40.76;99020.91;5024583;28;20030;-64
2022/03/29 11:23:58;;;;;;;35.33;22.45;;;;;;;17.51;40.61;99015.72;5016178;28;20057;-65
2022/03/29 11:26:24;;;;;;;38.58;20.02;;;;;;;17.51;40.46;99019.22;5013257;28;20452;-64
2022/03/29 11:28:52;;;;;;;37.08;21.35;;;;;;;17.48;41.11;99022.16;5013594;28;20029;-65
2022/03/29 11:31:19;;;;;;;35.30;21.77;;;;;;;17.32;41.19;99019.19;5012671;28;20034;-67
2022/03/29 11:33:49;;;;;;;33.60;22.00;;;;;;;17.04;41.28;99011.00;5013050;28;20128;-68